Terminal Aerodrome Forecast
Issued by NWS

Current Version | Previous Version | Text Only | Print | Product List | Glossary Off
Versions: 1 2 3 4 5 6 7 8 9 10 11 12 13 14 15 16 17 18 19 20 21 22

000
FTUS41 KRLX 281742
TAFCKB
TAF
KCKB 281742Z 2818/2918 25009G16KT 2SM BR BKN009 OVC015
     FM281900 25009KT 3SM BR SCT013 OVC018
     FM282000 26009KT P6SM BKN013
     FM290000 26006KT P6SM SCT060
     FM290500 00000KT 5SM BR SCT090
     FM290600 00000KT 2SM BR FEW090
     FM290700 00000KT 1/2SM FG VV001
     FM291200 00000KT 3SM BR SCT002
     FM291300 21004KT P6SM BKN120=

USA.gov is the U.S. government's official web portal to all federal, state and local government web resources and services.